createdAt,value
2022-08-17T00:00:43.043Z,21.17
2022-08-17T00:03:18.604Z,21.09
2022-08-17T00:05:53.077Z,21.08
2022-08-17T00:08:25.125Z,21.01
2022-08-17T00:10:55.239Z,20.98
2022-08-17T00:13:28.609Z,20.95
2022-08-17T00:16:02.611Z,20.93
2022-08-17T00:19:02.418Z,20.97
2022-08-17T00:21:25.312Z,20.97
2022-08-17T00:23:55.799Z,21.00
2022-08-17T00:26:43.551Z,20.96
2022-08-17T00:29:19.526Z,20.78
2022-08-17T00:31:50.677Z,20.77
2022-08-17T00:34:19.747Z,20.73
2022-08-17T00:36:48.277Z,20.74
2022-08-17T00:39:16.830Z,20.71
2022-08-17T00:41:45.598Z,20.66
2022-08-17T00:44:14.711Z,20.64
2022-08-17T00:46:47.843Z,20.67
2022-08-17T00:49:19.649Z,20.78
2022-08-17T00:51:56.110Z,20.80
2022-08-17T00:54:29.863Z,20.67
2022-08-17T00:57:05.637Z,20.59
2022-08-17T00:59:40.668Z,20.55
2022-08-17T01:02:14.325Z,20.52
2022-08-17T01:04:47.589Z,20.46
2022-08-17T01:07:17.436Z,20.48
2022-08-17T01:09:46.348Z,20.53
2022-08-17T01:12:15.367Z,20.48
2022-08-17T01:14:44.138Z,20.41
2022-08-17T01:17:13.302Z,20.33
2022-08-17T01:19:45.356Z,20.31
2022-08-17T01:22:23.966Z,20.33
2022-08-17T01:25:00.325Z,20.30
2022-08-17T01:27:30.367Z,20.31
2022-08-17T01:30:04.829Z,20.30
2022-08-17T01:32:53.753Z,20.24
2022-08-17T01:35:22.489Z,20.21
2022-08-17T01:37:52.422Z,20.19
2022-08-17T01:40:30.097Z,20.25
2022-08-17T01:43:04.499Z,20.15
2022-08-17T01:45:38.682Z,20.14
2022-08-17T01:48:07.690Z,20.14
2022-08-17T01:50:38.342Z,20.12
2022-08-17T01:53:14.915Z,20.08
2022-08-17T01:55:50.706Z,20.04
2022-08-17T01:58:19.851Z,19.94
2022-08-17T02:01:00.567Z,19.95
2022-08-17T02:03:31.532Z,19.97
2022-08-17T02:06:00.267Z,20.05
2022-08-17T02:08:37.002Z,20.00
2022-08-17T02:11:14.686Z,20.00
2022-08-17T02:13:43.814Z,19.97
2022-08-17T02:16:13.732Z,19.97
2022-08-17T02:18:42.845Z,19.92
2022-08-17T02:21:11.890Z,19.86
2022-08-17T02:23:48.378Z,19.83
2022-08-17T02:26:25.731Z,19.77
2022-08-17T02:28:55.815Z,19.74
2022-08-17T02:31:24.368Z,19.72
2022-08-17T02:34:00.294Z,19.73
2022-08-17T02:36:35.532Z,19.73
2022-08-17T02:39:08.940Z,19.74
2022-08-17T02:41:38.896Z,19.72
2022-08-17T02:44:08.731Z,19.73
2022-08-17T02:46:37.277Z,19.78
2022-08-17T02:49:06.530Z,19.80
2022-08-17T02:51:35.530Z,19.79
2022-08-17T02:54:41.144Z,19.87
2022-08-17T02:56:54.470Z,19.90
2022-08-17T02:59:24.399Z,19.94
2022-08-17T03:01:53.851Z,19.91
2022-08-17T03:04:23.064Z,19.92
2022-08-17T03:06:51.674Z,19.95
2022-08-17T03:09:21.601Z,19.93
2022-08-17T03:11:51.923Z,19.94
2022-08-17T03:14:26.246Z,20.06
2022-08-17T03:16:55.352Z,20.03
2022-08-17T03:19:23.938Z,20.01
2022-08-17T03:21:54.953Z,19.95
2022-08-17T03:24:28.787Z,19.91
2022-08-17T03:26:57.729Z,19.93
2022-08-17T03:29:26.541Z,19.98
2022-08-17T03:31:55.179Z,19.99
2022-08-17T03:34:23.760Z,19.97
2022-08-17T03:36:52.492Z,19.99
2022-08-17T03:39:21.024Z,20.00
2022-08-17T03:41:50.891Z,20.06
2022-08-17T03:44:19.607Z,20.08
2022-08-17T03:47:10.897Z,20.10
2022-08-17T03:49:57.126Z,20.10
2022-08-17T03:52:43.204Z,20.10
2022-08-17T03:55:35.860Z,20.09
2022-08-17T03:58:06.422Z,20.14
2022-08-17T04:00:39.709Z,20.19
2022-08-17T04:03:09.073Z,20.22
2022-08-17T04:05:38.298Z,20.29
2022-08-17T04:08:08.668Z,20.36
2022-08-17T04:10:41.932Z,20.45
2022-08-17T04:13:15.687Z,20.48
2022-08-17T04:15:52.991Z,20.50
2022-08-17T04:18:21.838Z,20.52
2022-08-17T04:20:50.427Z,20.55
2022-08-17T04:23:20.343Z,20.58
2022-08-17T04:25:51.751Z,20.63
2022-08-17T04:28:21.941Z,20.73
2022-08-17T04:30:50.970Z,20.78
2022-08-17T04:33:24.078Z,20.85
2022-08-17T04:35:55.991Z,20.91
2022-08-17T04:38:28.094Z,21.04
2022-08-17T04:41:15.914Z,21.11
2022-08-17T04:43:48.074Z,21.19
2022-08-17T04:46:20.053Z,21.21
2022-08-17T04:48:52.336Z,21.33
2022-08-17T04:51:24.748Z,21.34
2022-08-17T04:53:56.874Z,21.35
2022-08-17T04:56:28.104Z,21.30
2022-08-17T04:59:02.575Z,21.31
2022-08-17T05:01:35.241Z,21.29
2022-08-17T05:04:33.188Z,21.38
2022-08-17T05:06:57.966Z,21.40
2022-08-17T05:09:26.572Z,21.45
2022-08-17T05:11:56.215Z,21.50
2022-08-17T05:14:27.276Z,21.57
2022-08-17T05:17:07.037Z,21.63
2022-08-17T05:19:38.420Z,21.70
2022-08-17T05:22:07.472Z,21.70
2022-08-17T05:24:38.963Z,21.80
2022-08-17T05:27:18.727Z,21.82
2022-08-17T05:29:49.145Z,21.85
2022-08-17T05:32:39.321Z,21.95
2022-08-17T05:35:10.134Z,22.04
2022-08-17T05:37:39.071Z,22.15
2022-08-17T05:40:10.050Z,22.12
2022-08-17T05:42:38.820Z,22.21
2022-08-17T05:45:11.082Z,22.33
2022-08-17T05:47:41.117Z,22.38
2022-08-17T05:50:18.645Z,22.54
2022-08-17T05:53:04.289Z,22.49
2022-08-17T05:55:45.809Z,22.65
2022-08-17T05:58:31.256Z,22.65
2022-08-17T06:01:14.477Z,22.72
2022-08-17T06:03:58.673Z,22.66
2022-08-17T06:06:41.612Z,22.70
2022-08-17T06:09:33.843Z,22.85
2022-08-17T06:12:27.025Z,23.00
2022-08-17T06:15:19.501Z,23.09
2022-08-17T06:17:56.261Z,23.06
2022-08-17T06:20:28.741Z,23.12
2022-08-17T06:23:06.550Z,23.19
2022-08-17T06:25:46.474Z,23.30
2022-08-17T06:28:27.836Z,23.17
2022-08-17T06:31:03.996Z,23.12
2022-08-17T06:33:39.823Z,23.29
2022-08-17T06:36:30.266Z,23.78
2022-08-17T06:39:20.755Z,23.53
2022-08-17T06:42:05.237Z,23.38
2022-08-17T06:44:51.304Z,23.69
2022-08-17T06:47:30.326Z,23.86
2022-08-17T06:50:15.576Z,23.99
2022-08-17T06:52:53.853Z,24.19
2022-08-17T06:55:34.473Z,24.41
2022-08-17T06:58:15.849Z,24.88
2022-08-17T07:00:48.852Z,25.36
2022-08-17T07:03:30.335Z,25.97
2022-08-17T07:06:09.225Z,26.86
2022-08-17T07:08:54.861Z,27.17
2022-08-17T07:11:31.843Z,27.49
2022-08-17T07:14:20.040Z,26.68
2022-08-17T07:16:53.460Z,27.31
2022-08-17T07:19:28.183Z,27.00
2022-08-17T07:22:14.059Z,27.35
2022-08-17T07:24:51.574Z,27.97
2022-08-17T07:27:23.534Z,28.56
2022-08-17T07:29:58.251Z,27.55
2022-08-17T07:32:36.713Z,28.07
2022-08-17T07:35:15.334Z,27.94
2022-08-17T07:37:53.461Z,28.60
2022-08-17T07:40:35.099Z,29.60
2022-08-17T07:43:23.561Z,30.55
2022-08-17T07:46:18.898Z,31.18
2022-08-17T07:48:50.754Z,31.55
2022-08-17T07:51:28.065Z,31.55
2022-08-17T07:54:14.197Z,31.68
2022-08-17T07:56:47.916Z,31.97
2022-08-17T07:59:23.714Z,30.97
2022-08-17T08:02:31.121Z,29.88
2022-08-17T08:05:13.038Z,29.74
2022-08-17T08:07:55.001Z,29.86
2022-08-17T08:10:36.361Z,30.01
2022-08-17T08:13:12.318Z,30.87
2022-08-17T08:15:54.255Z,32.67
2022-08-17T08:18:41.205Z,35.22
2022-08-17T08:21:38.087Z,33.25
2022-08-17T08:24:32.014Z,33.67
2022-08-17T08:27:18.317Z,33.12
2022-08-17T08:29:58.374Z,33.52
2022-08-17T08:32:50.329Z,35.44
2022-08-17T08:35:30.977Z,35.55
2022-08-17T08:38:16.687Z,34.17
2022-08-17T08:41:17.236Z,34.21
2022-08-17T08:44:03.791Z,36.54
2022-08-17T08:46:47.383Z,34.87
2022-08-17T08:50:06.679Z,35.76
2022-08-17T08:52:58.310Z,34.98
2022-08-17T08:55:43.894Z,35.48
2022-08-17T08:58:32.226Z,35.52
2022-08-17T09:01:20.020Z,37.12
2022-08-17T09:04:24.215Z,34.67
2022-08-17T09:07:12.674Z,33.78
2022-08-17T09:09:59.443Z,33.94
2022-08-17T09:12:42.038Z,34.38
2022-08-17T09:15:18.958Z,35.26
2022-08-17T09:18:33.514Z,36.07
2022-08-17T09:20:56.632Z,35.66
2022-08-17T09:23:34.533Z,37.49
2022-08-17T09:26:13.001Z,36.65
2022-08-17T09:28:50.994Z,35.84
2022-08-17T09:31:31.301Z,35.32
2022-08-17T09:34:10.645Z,34.35
2022-08-17T09:37:02.177Z,34.72
2022-08-17T09:39:49.331Z,35.25
2022-08-17T09:42:28.056Z,36.21
2022-08-17T09:45:10.890Z,35.71
2022-08-17T09:47:48.313Z,36.63
2022-08-17T09:51:03.748Z,35.83
2022-08-17T09:53:16.035Z,35.65
2022-08-17T09:56:16.955Z,33.51
2022-08-17T09:59:16.956Z,32.62
2022-08-17T10:01:54.700Z,32.91
2022-08-17T10:04:50.597Z,31.94
2022-08-17T10:07:31.981Z,32.85
2022-08-17T10:10:14.347Z,33.61
2022-08-17T10:12:53.328Z,32.75
2022-08-17T10:15:42.492Z,31.32
2022-08-17T10:18:37.738Z,30.39
2022-08-17T10:21:30.580Z,30.16
2022-08-17T10:24:28.573Z,32.57
2022-08-17T10:27:03.115Z,33.13
2022-08-17T10:29:47.531Z,33.18
2022-08-17T10:32:32.534Z,35.54
2022-08-17T10:35:29.991Z,35.30
2022-08-17T10:38:36.541Z,33.79
2022-08-17T10:41:25.785Z,34.46
2022-08-17T10:44:38.828Z,35.48
2022-08-17T10:47:09.501Z,35.07
2022-08-17T10:49:47.798Z,35.22
2022-08-17T10:52:50.317Z,32.29
2022-08-17T10:55:20.653Z,31.30
2022-08-17T10:57:54.893Z,31.45
2022-08-17T11:01:05.757Z,30.17
2022-08-17T11:03:34.991Z,29.88
2022-08-17T11:06:19.055Z,29.66
2022-08-17T11:09:30.727Z,29.97
2022-08-17T11:12:18.682Z,30.49
2022-08-17T11:15:05.058Z,31.90
2022-08-17T11:18:22.146Z,33.47
2022-08-17T11:21:47.543Z,32.77
2022-08-17T11:24:23.477Z,32.50
2022-08-17T11:27:13.558Z,33.24
2022-08-17T11:30:01.465Z,33.40
2022-08-17T11:32:39.080Z,32.04
2022-08-17T11:35:41.248Z,30.89
2022-08-17T11:38:25.866Z,30.88
2022-08-17T11:41:19.483Z,31.13
2022-08-17T11:44:25.873Z,31.73
2022-08-17T11:47:33.692Z,30.77
2022-08-17T11:51:01.080Z,31.40
2022-08-17T11:57:02.283Z,31.64
2022-08-17T12:00:00.974Z,30.35
2022-08-17T12:02:38.956Z,30.77
2022-08-17T12:05:35.088Z,31.48
2022-08-17T12:08:21.653Z,31.24
2022-08-17T12:11:00.631Z,30.33
2022-08-17T12:13:38.759Z,30.06
2022-08-17T12:16:10.051Z,29.55
2022-08-17T12:18:41.988Z,29.41
2022-08-17T12:21:45.118Z,29.32
2022-08-17T12:24:32.957Z,29.07
2022-08-17T12:27:06.919Z,28.91
2022-08-17T12:29:39.193Z,28.96
2022-08-17T12:32:17.538Z,28.82
2022-08-17T12:34:50.803Z,29.63
2022-08-17T12:37:22.726Z,29.30
2022-08-17T12:39:57.661Z,29.18
2022-08-17T12:42:31.100Z,29.22
2022-08-17T12:45:00.257Z,29.13
2022-08-17T12:47:30.115Z,30.38
2022-08-17T12:50:29.107Z,30.67
2022-08-17T12:53:02.311Z,30.31
2022-08-17T12:55:38.909Z,30.58
2022-08-17T12:58:14.648Z,30.55
2022-08-17T13:00:51.606Z,31.03
2022-08-17T13:03:24.226Z,29.66
2022-08-17T13:06:01.648Z,29.20
2022-08-17T13:08:36.133Z,29.27
2022-08-17T13:11:09.377Z,30.48
2022-08-17T13:13:43.088Z,30.35
2022-08-17T13:16:20.354Z,30.92
2022-08-17T13:18:53.634Z,31.42
2022-08-17T13:21:30.673Z,31.69
2022-08-17T13:24:03.193Z,30.76
2022-08-17T13:26:36.571Z,30.99
2022-08-17T13:29:18.519Z,30.53
2022-08-17T13:31:52.367Z,30.23
2022-08-17T13:35:05.895Z,30.26
2022-08-17T13:37:36.923Z,29.77
2022-08-17T13:40:33.545Z,29.54
2022-08-17T13:43:03.499Z,29.35
2022-08-17T13:45:44.731Z,29.42
2022-08-17T13:48:26.866Z,28.93
2022-08-17T13:51:29.549Z,28.60
2022-08-17T13:54:26.826Z,28.46
2022-08-17T13:57:01.509Z,28.45
2022-08-17T13:59:54.277Z,28.34
2022-08-17T14:02:28.339Z,28.19
2022-08-17T14:05:00.541Z,28.05
2022-08-17T14:07:36.205Z,28.26
2022-08-17T14:10:13.681Z,28.86
2022-08-17T14:12:45.419Z,29.09
2022-08-17T14:15:16.718Z,29.22
2022-08-17T14:17:45.530Z,30.67
2022-08-17T14:20:15.153Z,29.90
2022-08-17T14:22:48.314Z,29.31
2022-08-17T14:25:24.203Z,28.87
2022-08-17T14:27:54.243Z,28.96
2022-08-17T14:30:29.654Z,28.61
2022-08-17T14:33:02.141Z,29.23
2022-08-17T14:35:31.018Z,29.70
2022-08-17T14:37:59.868Z,29.49
2022-08-17T14:40:30.086Z,29.14
2022-08-17T14:42:59.256Z,29.35
2022-08-17T14:45:33.251Z,30.12
2022-08-17T14:48:07.646Z,29.88
2022-08-17T14:50:39.441Z,29.80
2022-08-17T14:53:13.125Z,30.11
2022-08-17T14:55:47.150Z,29.61
2022-08-17T14:58:16.179Z,29.33
2022-08-17T15:00:45.188Z,30.23
2022-08-17T15:03:14.524Z,30.79
2022-08-17T15:05:44.336Z,30.05
2022-08-17T15:08:13.554Z,29.33
2022-08-17T15:10:44.838Z,29.18
2022-08-17T15:13:21.426Z,28.86
2022-08-17T15:15:51.298Z,28.73
2022-08-17T15:18:20.199Z,28.47
2022-08-17T15:20:50.240Z,28.31
2022-08-17T15:23:23.497Z,28.22
2022-08-17T15:25:55.598Z,28.69
2022-08-17T15:28:24.486Z,28.25
2022-08-17T15:30:54.541Z,28.12
2022-08-17T15:33:29.472Z,27.96
2022-08-17T15:36:02.353Z,27.87
2022-08-17T15:38:35.314Z,28.05
2022-08-17T15:41:06.413Z,28.13
2022-08-17T15:43:36.421Z,27.83
2022-08-17T15:46:10.516Z,27.65
2022-08-17T15:48:42.537Z,27.56
2022-08-17T15:51:15.268Z,27.55
2022-08-17T15:53:47.129Z,27.58
2022-08-17T15:56:18.311Z,27.56
2022-08-17T15:58:49.416Z,27.51
2022-08-17T16:01:41.869Z,27.45
2022-08-17T16:04:21.274Z,27.32
2022-08-17T16:06:58.774Z,27.18
2022-08-17T16:09:27.527Z,27.08
2022-08-17T16:11:57.544Z,27.03
2022-08-17T16:14:32.423Z,26.97
2022-08-17T16:17:04.475Z,26.93
2022-08-17T16:19:34.415Z,26.87
2022-08-17T16:22:03.901Z,26.78
2022-08-17T16:24:34.105Z,26.72
2022-08-17T16:27:11.719Z,26.67
2022-08-17T16:29:42.421Z,26.58
2022-08-17T16:32:15.063Z,26.57
2022-08-17T16:34:44.643Z,26.56
2022-08-17T16:37:13.639Z,26.53
2022-08-17T16:39:42.342Z,26.55
2022-08-17T16:42:26.978Z,26.66
2022-08-17T16:44:58.084Z,26.59
2022-08-17T16:47:27.152Z,26.55
2022-08-17T16:49:55.828Z,26.46
2022-08-17T16:52:32.501Z,26.47
2022-08-17T16:55:04.882Z,26.50
2022-08-17T16:57:37.423Z,26.57
2022-08-17T17:00:20.949Z,26.64
2022-08-17T17:02:50.879Z,26.67
2022-08-17T17:05:41.503Z,26.92
2022-08-17T17:08:14.822Z,26.64
2022-08-17T17:10:49.230Z,26.62
2022-08-17T17:13:27.546Z,26.64
2022-08-17T17:16:06.928Z,26.50
2022-08-17T17:18:43.507Z,26.55
2022-08-17T17:21:19.182Z,26.43
2022-08-17T17:23:57.159Z,26.37
2022-08-17T17:27:07.296Z,26.40
2022-08-17T17:29:58.219Z,26.26
2022-08-17T17:32:38.510Z,26.24
2022-08-17T17:35:16.436Z,26.19
2022-08-17T17:37:47.638Z,26.13
2022-08-17T17:40:23.627Z,26.06
2022-08-17T17:43:14.233Z,25.96
2022-08-17T17:45:58.661Z,25.92
2022-08-17T17:48:48.013Z,25.86
2022-08-17T17:52:06.240Z,25.85
2022-08-17T17:54:38.346Z,25.79
2022-08-17T17:57:24.717Z,25.72
2022-08-17T18:00:08.177Z,25.64
2022-08-17T18:03:05.793Z,25.59
2022-08-17T18:05:52.833Z,25.48
2022-08-17T18:08:49.037Z,25.41
2022-08-17T18:11:51.562Z,25.31
2022-08-17T18:14:38.624Z,25.19
2022-08-17T18:17:07.874Z,25.12
2022-08-17T18:19:41.523Z,25.08
2022-08-17T18:22:14.926Z,24.98
2022-08-17T18:24:48.240Z,24.91
2022-08-17T18:27:25.375Z,24.82
2022-08-17T18:29:56.902Z,24.77
2022-08-17T18:32:37.689Z,24.72
2022-08-17T18:35:35.090Z,24.68
2022-08-17T18:38:23.272Z,24.59
2022-08-17T18:41:19.286Z,24.58
2022-08-17T18:44:02.619Z,24.57
2022-08-17T18:46:37.782Z,24.49
2022-08-17T18:49:25.417Z,24.45
2022-08-17T18:52:15.393Z,24.49
2022-08-17T18:55:08.751Z,24.35
2022-08-17T18:57:42.622Z,24.24
2022-08-17T19:00:19.211Z,24.16
2022-08-17T19:02:55.361Z,24.14
2022-08-17T19:05:35.963Z,24.09
2022-08-17T19:08:25.769Z,24.05
2022-08-17T19:10:59.486Z,23.95
2022-08-17T19:13:35.612Z,23.89
2022-08-17T19:16:15.424Z,23.89
2022-08-17T19:18:53.112Z,23.83
2022-08-17T19:21:28.061Z,23.79
2022-08-17T19:24:08.564Z,23.79
2022-08-17T19:26:53.267Z,23.67
2022-08-17T19:29:34.218Z,23.53
2022-08-17T19:32:04.249Z,23.47
2022-08-17T19:34:36.326Z,23.46
2022-08-17T19:37:16.271Z,23.43
2022-08-17T19:40:02.531Z,23.35
2022-08-17T19:42:47.528Z,23.27
2022-08-17T19:45:48.219Z,23.23
2022-08-17T19:48:42.733Z,23.25
2022-08-17T19:51:18.823Z,23.29
2022-08-17T19:54:07.727Z,23.27
2022-08-17T19:56:51.685Z,23.20
2022-08-17T19:59:36.058Z,23.15
2022-08-17T20:02:21.637Z,23.10
2022-08-17T20:04:55.084Z,23.11
2022-08-17T20:07:38.348Z,23.13
2022-08-17T20:10:12.264Z,23.07
2022-08-17T20:12:54.596Z,23.07
2022-08-17T20:15:30.584Z,23.05
2022-08-17T20:18:06.623Z,23.03
2022-08-17T20:20:48.053Z,23.02
2022-08-17T20:23:37.287Z,23.00
2022-08-17T20:26:19.688Z,22.99
2022-08-17T20:29:37.728Z,22.94
2022-08-17T20:32:25.581Z,22.90
2022-08-17T20:35:25.575Z,22.90
2022-08-17T20:38:02.111Z,22.77
2022-08-17T20:40:39.386Z,22.80
2022-08-17T20:43:51.501Z,22.86
2022-08-17T20:46:52.160Z,22.81
2022-08-17T20:49:31.866Z,22.78
2022-08-17T20:52:07.724Z,22.82
2022-08-17T20:54:51.196Z,22.98
2022-08-17T20:57:47.897Z,22.94
2022-08-17T21:00:44.712Z,22.82
2022-08-17T21:03:53.208Z,22.65
2022-08-17T21:06:26.044Z,22.61
2022-08-17T21:09:00.214Z,22.57
2022-08-17T21:12:04.101Z,22.57
2022-08-17T21:15:00.879Z,22.58
2022-08-17T21:17:49.973Z,22.67
2022-08-17T21:20:37.313Z,22.69
2022-08-17T21:23:34.091Z,22.72
2022-08-17T21:26:20.648Z,22.63
2022-08-17T21:29:29.670Z,22.71
2022-08-17T21:32:24.626Z,22.70
2022-08-17T21:35:28.673Z,22.63
2022-08-17T21:38:05.110Z,22.58
2022-08-17T21:40:35.472Z,22.55
2022-08-17T21:43:23.833Z,22.53
2022-08-17T21:46:03.958Z,22.49
2022-08-17T21:48:42.824Z,22.56
2022-08-17T21:51:19.224Z,22.53
2022-08-17T21:53:52.290Z,22.38
2022-08-17T21:56:30.503Z,22.29
2022-08-17T21:59:03.557Z,22.20
2022-08-17T22:01:35.628Z,22.16
2022-08-17T22:04:18.948Z,22.10
2022-08-17T22:06:52.492Z,21.99
2022-08-17T22:09:31.455Z,21.99
2022-08-17T22:12:08.954Z,21.98
2022-08-17T22:14:52.198Z,21.94
2022-08-17T22:17:27.203Z,21.92
2022-08-17T22:20:00.861Z,21.87
2022-08-17T22:22:56.550Z,21.83
2022-08-17T22:25:27.859Z,21.74
2022-08-17T22:28:00.162Z,21.75
2022-08-17T22:30:37.566Z,21.74
2022-08-17T22:33:38.142Z,21.71
2022-08-17T22:36:22.727Z,21.66
2022-08-17T22:38:55.950Z,21.62
2022-08-17T22:41:41.860Z,21.62
2022-08-17T22:44:29.663Z,21.59
2022-08-17T22:47:11.387Z,21.60
2022-08-17T22:49:53.931Z,21.55
2022-08-17T22:52:33.075Z,21.57
2022-08-17T22:55:35.308Z,21.52
2022-08-17T22:58:29.989Z,21.50
2022-08-17T23:01:26.423Z,21.49
2022-08-17T23:03:58.223Z,21.46
2022-08-17T23:06:27.144Z,21.43
2022-08-17T23:08:56.607Z,21.39
2022-08-17T23:11:43.021Z,21.40
2022-08-17T23:14:22.543Z,21.37
2022-08-17T23:16:51.421Z,21.34
2022-08-17T23:19:22.856Z,21.33
2022-08-17T23:21:55.449Z,21.28
2022-08-17T23:24:27.839Z,21.25
2022-08-17T23:26:59.279Z,21.22
2022-08-17T23:29:29.632Z,21.17
2022-08-17T23:32:01.425Z,21.12
2022-08-17T23:34:30.371Z,21.09
2022-08-17T23:37:02.263Z,21.08
2022-08-17T23:39:31.668Z,21.08
2022-08-17T23:42:07.947Z,21.09
2022-08-17T23:44:39.115Z,21.04
2022-08-17T23:47:08.992Z,21.04
2022-08-17T23:49:39.235Z,21.03
2022-08-17T23:52:15.172Z,21.01
2022-08-17T23:54:48.460Z,20.99
2022-08-17T23:57:33.152Z,21.01
